createdAt,value
2023-01-27T00:00:55.714Z,78152.09
2023-01-27T00:03:25.580Z,78162.22
2023-01-27T00:05:52.857Z,78160.19
2023-01-27T00:08:20.407Z,78162.22
2023-01-27T00:11:07.891Z,78158.16
2023-01-27T00:13:34.776Z,78162.22
2023-01-27T00:16:01.959Z,78170.34
2023-01-27T00:18:28.847Z,78166.28
2023-01-27T00:21:14.575Z,78170.34
2023-01-27T00:24:00.233Z,78174.41
2023-01-27T00:26:27.384Z,78170.34
2023-01-27T00:28:54.297Z,78164.25
2023-01-27T00:31:40.140Z,78174.41
2023-01-27T00:34:09.994Z,78178.44
2023-01-27T00:36:38.879Z,78178.44
2023-01-27T00:39:10.530Z,78170.34
2023-01-27T00:41:38.091Z,78172.38
2023-01-27T00:44:06.397Z,78172.38
2023-01-27T00:46:34.435Z,78174.41
2023-01-27T00:49:01.525Z,78190.63
2023-01-27T00:51:28.729Z,78208.88
2023-01-27T00:53:55.741Z,78206.84
2023-01-27T00:56:22.928Z,78214.97
2023-01-27T00:58:49.896Z,78202.78
2023-01-27T01:01:35.668Z,78198.72
2023-01-27T01:04:02.896Z,78206.84
2023-01-27T01:06:31.068Z,78206.84
2023-01-27T01:08:58.524Z,78206.84
2023-01-27T01:11:26.039Z,78206.84
2023-01-27T01:13:55.877Z,78206.84
2023-01-27T01:16:24.538Z,78219.00
2023-01-27T01:18:52.471Z,78214.97
2023-01-27T01:21:20.538Z,78206.84
2023-01-27T01:23:47.788Z,78206.84
2023-01-27T01:26:17.061Z,78214.97
2023-01-27T01:28:46.025Z,78210.91
2023-01-27T01:31:18.807Z,78210.91
2023-01-27T01:33:47.241Z,78202.78
2023-01-27T01:36:17.290Z,78198.72
2023-01-27T01:38:44.646Z,78198.72
2023-01-27T01:41:15.377Z,78206.84
2023-01-27T01:43:42.983Z,78219.00
2023-01-27T01:46:13.465Z,78210.91
2023-01-27T01:48:42.664Z,78227.13
2023-01-27T01:51:13.742Z,78212.94
2023-01-27T01:54:02.125Z,78223.06
2023-01-27T01:56:36.652Z,78221.03
2023-01-27T01:59:12.901Z,78233.22
2023-01-27T02:01:41.092Z,78229.16
2023-01-27T02:04:17.842Z,78227.13
2023-01-27T02:06:54.966Z,78227.13
2023-01-27T02:09:40.379Z,78231.19
2023-01-27T02:12:08.069Z,78227.13
2023-01-27T02:14:37.892Z,78235.25
2023-01-27T02:17:05.971Z,78231.19
2023-01-27T02:19:37.483Z,78239.28
2023-01-27T02:22:07.897Z,78237.28
2023-01-27T02:24:44.536Z,78231.19
2023-01-27T02:27:14.268Z,78231.19
2023-01-27T02:29:41.158Z,78227.13
2023-01-27T02:32:08.342Z,78227.13
2023-01-27T02:34:38.093Z,78223.06
2023-01-27T02:37:09.204Z,78227.13
2023-01-27T02:39:43.109Z,78223.06
2023-01-27T02:42:13.939Z,78221.03
2023-01-27T02:44:41.383Z,78219.00
2023-01-27T02:47:08.771Z,78223.06
2023-01-27T02:49:35.755Z,78227.13
2023-01-27T02:52:03.468Z,78235.25
2023-01-27T02:54:30.943Z,78223.06
2023-01-27T02:56:58.781Z,78223.06
2023-01-27T02:59:27.695Z,78214.97
2023-01-27T03:01:54.957Z,78210.91
2023-01-27T03:04:21.838Z,78206.84
2023-01-27T03:06:49.013Z,78212.94
2023-01-27T03:09:15.975Z,78214.97
2023-01-27T03:12:01.895Z,78219.00
2023-01-27T03:14:48.059Z,78210.91
2023-01-27T03:17:34.412Z,78214.97
2023-01-27T03:20:01.366Z,78208.88
2023-01-27T03:22:29.846Z,78212.94
2023-01-27T03:24:56.856Z,78219.00
2023-01-27T03:27:24.134Z,78216.97
2023-01-27T03:30:20.349Z,78214.97
2023-01-27T03:32:58.443Z,78210.91
2023-01-27T03:35:49.368Z,78210.91
2023-01-27T03:38:39.811Z,78206.84
2023-01-27T03:41:25.496Z,78206.84
2023-01-27T03:44:11.515Z,78202.78
2023-01-27T03:46:40.085Z,78196.72
2023-01-27T03:49:07.476Z,78192.66
2023-01-27T03:51:34.378Z,78194.69
2023-01-27T03:54:01.498Z,78194.69
2023-01-27T03:56:28.447Z,78194.69
2023-01-27T03:58:55.674Z,78196.72
2023-01-27T04:01:24.278Z,78200.75
2023-01-27T04:04:10.069Z,78194.69
2023-01-27T04:06:53.716Z,78198.72
2023-01-27T04:09:30.352Z,78198.72
2023-01-27T04:11:59.990Z,78206.84
2023-01-27T04:14:32.656Z,78219.00
2023-01-27T04:17:01.103Z,78214.97
2023-01-27T04:19:28.888Z,78210.91
2023-01-27T04:21:57.045Z,78212.94
2023-01-27T04:24:24.688Z,78223.06
2023-01-27T04:26:59.267Z,78210.91
2023-01-27T04:29:29.310Z,78219.00
2023-01-27T04:31:57.917Z,78219.00
2023-01-27T04:34:26.856Z,78223.06
2023-01-27T04:36:54.516Z,78219.00
2023-01-27T04:39:22.417Z,78219.00
2023-01-27T04:41:49.804Z,78225.09
2023-01-27T04:44:20.418Z,78235.25
2023-01-27T04:46:47.611Z,78229.16
2023-01-27T04:49:14.877Z,78235.25
2023-01-27T04:51:41.902Z,78243.34
2023-01-27T04:54:09.860Z,78251.47
2023-01-27T04:56:39.060Z,78257.53
2023-01-27T04:59:09.835Z,78251.47
2023-01-27T05:01:36.784Z,78259.56
2023-01-27T05:04:04.486Z,78265.66
2023-01-27T05:06:50.200Z,78267.69
2023-01-27T05:09:17.810Z,78271.75
2023-01-27T05:11:44.777Z,78267.69
2023-01-27T05:14:13.987Z,78267.69
2023-01-27T05:16:41.111Z,78255.53
2023-01-27T05:19:08.825Z,78251.47
2023-01-27T05:21:35.982Z,78251.47
2023-01-27T05:24:03.645Z,78255.53
2023-01-27T05:26:30.492Z,78259.56
2023-01-27T05:28:58.536Z,78267.69
2023-01-27T05:31:28.480Z,78273.78
2023-01-27T05:33:58.060Z,78287.97
2023-01-27T05:36:26.100Z,78287.97
2023-01-27T05:38:54.677Z,78292.03
2023-01-27T05:41:22.600Z,78296.09
2023-01-27T05:43:54.549Z,78290.00
2023-01-27T05:46:26.595Z,78292.03
2023-01-27T05:48:56.397Z,78296.09
2023-01-27T05:51:24.802Z,78308.25
2023-01-27T05:53:53.851Z,78296.09
2023-01-27T05:56:21.124Z,78292.03
2023-01-27T05:58:48.639Z,78296.09
2023-01-27T06:01:18.385Z,78300.13
2023-01-27T06:03:46.708Z,78294.06
2023-01-27T06:06:15.627Z,78292.03
2023-01-27T06:08:43.476Z,78296.09
2023-01-27T06:11:10.366Z,78300.13
2023-01-27T06:13:40.954Z,78300.13
2023-01-27T06:16:10.458Z,78308.25
2023-01-27T06:18:38.336Z,78308.25
2023-01-27T06:21:07.493Z,78312.31
2023-01-27T06:23:34.795Z,78316.34
2023-01-27T06:26:06.965Z,78324.47
2023-01-27T06:28:34.103Z,78332.59
2023-01-27T06:31:20.974Z,78338.66
2023-01-27T06:33:48.285Z,78336.66
2023-01-27T06:36:17.370Z,78344.75
2023-01-27T06:38:45.347Z,78340.69
2023-01-27T06:41:12.814Z,78340.69
2023-01-27T06:43:40.023Z,78344.75
2023-01-27T06:46:07.361Z,78342.72
2023-01-27T06:48:34.963Z,78344.75
2023-01-27T06:51:01.872Z,78344.75
2023-01-27T06:53:29.420Z,78356.94
2023-01-27T06:55:58.148Z,78358.94
2023-01-27T06:58:26.341Z,78356.94
2023-01-27T07:00:54.100Z,78352.88
2023-01-27T07:03:22.111Z,78348.81
2023-01-27T07:05:49.073Z,78356.94
2023-01-27T07:08:16.409Z,78344.75
2023-01-27T07:10:43.215Z,78336.66
2023-01-27T07:13:13.021Z,78330.56
2023-01-27T07:15:40.843Z,78332.59
2023-01-27T07:18:09.695Z,78328.53
2023-01-27T07:20:36.630Z,78316.34
2023-01-27T07:23:05.253Z,78316.34
2023-01-27T07:25:34.499Z,78300.13
2023-01-27T07:28:02.381Z,78300.13
2023-01-27T07:30:29.742Z,78281.88
2023-01-27T07:33:03.419Z,78275.81
2023-01-27T07:35:30.445Z,78261.59
2023-01-27T07:37:58.491Z,78259.56
2023-01-27T07:40:25.704Z,78249.44
2023-01-27T07:42:52.915Z,78239.28
2023-01-27T07:45:20.131Z,78231.19
2023-01-27T07:47:47.875Z,78227.13
2023-01-27T07:50:15.172Z,78219.00
2023-01-27T07:52:42.672Z,78221.03
2023-01-27T07:55:10.066Z,78219.00
2023-01-27T07:57:37.612Z,78308.25
2023-01-27T08:00:05.844Z,78202.78
2023-01-27T08:02:39.559Z,78186.56
2023-01-27T08:05:07.235Z,78166.28
2023-01-27T08:07:34.348Z,78162.22
2023-01-27T08:10:01.353Z,78154.13
2023-01-27T08:12:28.670Z,78162.22
2023-01-27T08:14:55.594Z,78162.22
2023-01-27T08:17:22.773Z,78158.16
2023-01-27T08:19:52.118Z,78146.00
2023-01-27T08:22:22.578Z,78141.94
2023-01-27T08:24:50.374Z,78150.06
2023-01-27T08:27:17.957Z,78141.94
2023-01-27T08:29:44.974Z,78133.84
2023-01-27T08:32:15.030Z,78117.63
2023-01-27T08:34:42.515Z,78113.56
2023-01-27T08:37:09.724Z,78109.50
2023-01-27T08:39:36.726Z,78111.53
2023-01-27T08:42:03.990Z,78109.50
2023-01-27T08:44:31.007Z,78097.34
2023-01-27T08:46:58.168Z,78085.16
2023-01-27T08:49:25.140Z,78073.00
2023-01-27T08:51:52.436Z,78077.06
2023-01-27T08:54:19.386Z,78083.13
2023-01-27T08:56:46.571Z,78093.28
2023-01-27T08:59:13.461Z,78109.50
2023-01-27T09:01:41.789Z,78115.59
2023-01-27T09:04:09.347Z,78117.63
2023-01-27T09:06:36.747Z,78113.56
2023-01-27T09:09:11.792Z,78109.50
2023-01-27T09:11:44.543Z,78109.50
2023-01-27T09:14:11.946Z,78109.50
2023-01-27T09:16:39.632Z,78113.56
2023-01-27T09:19:06.596Z,78103.41
2023-01-27T09:21:33.747Z,78103.41
2023-01-27T09:24:01.309Z,78093.28
2023-01-27T09:26:28.759Z,78097.34
2023-01-27T09:28:55.576Z,78093.28
2023-01-27T09:31:22.943Z,78073.00
2023-01-27T09:33:49.890Z,78048.66
2023-01-27T09:36:20.358Z,78020.28
2023-01-27T09:38:57.981Z,77993.91
2023-01-27T09:41:54.518Z,77987.81
2023-01-27T09:44:36.678Z,77967.53
2023-01-27T09:47:14.078Z,77955.38
2023-01-27T09:50:15.524Z,77963.50
2023-01-27T09:52:54.691Z,77971.59
2023-01-27T09:55:39.814Z,77971.59
2023-01-27T09:58:20.620Z,77959.44
2023-01-27T10:00:57.289Z,77947.25
2023-01-27T10:03:55.812Z,77943.22
2023-01-27T10:06:51.991Z,77935.09
2023-01-27T10:09:52.533Z,77922.94
2023-01-27T10:12:25.420Z,77914.81
2023-01-27T10:14:55.490Z,77922.94
2023-01-27T10:18:04.368Z,77918.88
2023-01-27T10:20:47.579Z,77918.88
2023-01-27T10:23:20.790Z,77931.03
2023-01-27T10:26:06.515Z,77949.28
2023-01-27T10:28:34.663Z,77971.59
2023-01-27T10:31:10.623Z,77983.75
2023-01-27T10:33:48.287Z,77995.94
2023-01-27T10:36:24.901Z,78010.13
2023-01-27T10:39:13.020Z,78012.16
2023-01-27T10:41:58.888Z,78024.31
2023-01-27T10:44:46.082Z,78030.41
2023-01-27T10:47:44.026Z,78032.44
2023-01-27T10:50:19.672Z,78020.28
2023-01-27T10:53:06.900Z,78020.28
2023-01-27T10:55:46.749Z,78024.31
2023-01-27T10:58:44.027Z,78038.53
2023-01-27T11:01:22.602Z,78052.72
2023-01-27T11:03:59.591Z,78034.47
2023-01-27T11:06:35.315Z,78040.56
2023-01-27T11:09:08.950Z,78040.56
2023-01-27T11:11:45.910Z,78036.50
2023-01-27T11:14:41.647Z,78036.50
2023-01-27T11:17:20.309Z,78036.50
2023-01-27T11:20:04.468Z,78032.44
2023-01-27T11:22:43.474Z,78032.44
2023-01-27T11:25:33.984Z,78024.31
2023-01-27T11:28:20.323Z,78028.38
2023-01-27T11:31:11.050Z,78018.25
2023-01-27T11:33:55.493Z,78024.31
2023-01-27T11:36:22.880Z,78020.28
2023-01-27T11:38:49.753Z,78020.28
2023-01-27T11:41:16.916Z,78024.31
2023-01-27T11:43:43.811Z,78008.09
2023-01-27T11:46:24.295Z,78012.16
2023-01-27T11:49:10.319Z,78024.31
2023-01-27T11:51:40.845Z,78028.38
2023-01-27T11:54:14.200Z,78040.56
2023-01-27T11:56:46.062Z,78044.59
2023-01-27T11:59:18.910Z,78040.56
2023-01-27T12:02:02.198Z,78044.59
2023-01-27T12:04:46.486Z,78040.56
2023-01-27T12:07:46.528Z,78028.38
2023-01-27T12:10:42.505Z,78036.50
2023-01-27T12:13:24.823Z,78044.59
2023-01-27T12:15:56.458Z,78054.75
2023-01-27T12:18:23.792Z,78056.78
2023-01-27T12:21:00.123Z,78064.88
2023-01-27T12:23:31.517Z,78060.81
2023-01-27T12:26:01.447Z,78060.81
2023-01-27T12:28:34.593Z,78056.78
2023-01-27T12:31:13.350Z,78066.91
2023-01-27T12:33:45.886Z,78048.66
2023-01-27T12:36:16.608Z,78052.72
2023-01-27T12:39:00.244Z,78050.69
2023-01-27T12:41:30.947Z,78044.59
2023-01-27T12:44:08.059Z,78048.66
2023-01-27T12:46:35.032Z,78036.50
2023-01-27T12:49:11.054Z,78030.41
2023-01-27T12:51:45.785Z,78036.50
2023-01-27T12:54:27.674Z,78048.66
2023-01-27T12:57:01.060Z,78052.72
2023-01-27T12:59:28.541Z,78068.94
2023-01-27T13:02:32.659Z,78073.00
2023-01-27T13:05:08.267Z,78077.06
2023-01-27T13:07:45.931Z,78079.09
2023-01-27T13:10:23.809Z,78070.97
2023-01-27T13:12:54.284Z,78060.81
2023-01-27T13:15:24.204Z,78060.81
2023-01-27T13:17:55.318Z,78052.72
2023-01-27T13:20:22.480Z,78060.81
2023-01-27T13:23:02.478Z,78068.94
2023-01-27T13:25:38.527Z,78085.16
2023-01-27T13:28:08.048Z,78089.22
2023-01-27T13:30:43.246Z,78097.34
2023-01-27T13:33:54.485Z,78093.28
2023-01-27T13:37:02.489Z,78101.38
2023-01-27T13:39:46.849Z,78113.56
2023-01-27T13:42:22.500Z,78113.56
2023-01-27T13:44:55.659Z,78121.66
2023-01-27T13:47:27.372Z,78113.56
2023-01-27T13:50:00.755Z,78117.63
2023-01-27T13:52:28.371Z,78109.50
2023-01-27T13:54:55.426Z,78117.63
2023-01-27T13:57:57.975Z,78125.72
2023-01-27T14:00:43.271Z,78127.75
2023-01-27T14:03:23.147Z,78127.75
2023-01-27T14:06:17.190Z,78125.72
2023-01-27T14:08:59.281Z,78133.84
2023-01-27T14:11:45.195Z,78146.00
2023-01-27T14:14:57.381Z,78150.06
2023-01-27T14:17:37.082Z,78154.13
2023-01-27T14:20:24.742Z,78146.00
2023-01-27T14:23:00.936Z,78146.00
2023-01-27T14:25:58.623Z,78156.16
2023-01-27T14:28:53.005Z,78162.22
2023-01-27T14:31:34.043Z,78174.41
2023-01-27T14:34:25.445Z,78178.44
2023-01-27T14:36:57.585Z,78174.41
2023-01-27T14:39:35.520Z,78170.34
2023-01-27T14:42:14.368Z,78176.44
2023-01-27T14:45:06.184Z,78182.50
2023-01-27T14:48:00.881Z,78186.56
2023-01-27T14:50:40.109Z,78192.66
2023-01-27T14:53:15.471Z,78198.72
2023-01-27T14:55:55.075Z,78210.91
2023-01-27T14:58:46.669Z,78210.91
2023-01-27T15:01:36.321Z,78219.00
2023-01-27T15:04:30.047Z,78227.13
2023-01-27T15:07:38.482Z,78227.13
2023-01-27T15:10:23.080Z,78227.13
2023-01-27T15:13:17.723Z,78231.19
2023-01-27T15:16:05.470Z,78271.75
2023-01-27T15:18:59.375Z,78237.28
2023-01-27T15:21:41.682Z,78235.25
2023-01-27T15:24:14.444Z,78231.19
2023-01-27T15:26:42.207Z,78239.28
2023-01-27T15:29:14.502Z,78239.28
2023-01-27T15:31:43.134Z,78247.41
2023-01-27T15:34:21.681Z,78243.34
2023-01-27T15:37:02.226Z,78247.41
2023-01-27T15:39:40.811Z,78251.47
2023-01-27T15:42:10.825Z,78249.44
2023-01-27T15:44:58.803Z,78251.47
2023-01-27T15:47:30.242Z,78251.47
2023-01-27T15:50:06.466Z,78251.47
2023-01-27T15:52:42.486Z,78255.53
2023-01-27T15:55:27.028Z,78253.50
2023-01-27T15:58:10.609Z,78255.53
2023-01-27T16:00:41.681Z,78253.50
2023-01-27T16:03:27.574Z,78253.50
2023-01-27T16:06:01.969Z,78263.63
2023-01-27T16:08:40.440Z,78259.56
2023-01-27T16:11:29.157Z,78259.56
2023-01-27T16:14:11.375Z,78259.56
2023-01-27T16:17:07.707Z,78271.75
2023-01-27T16:19:44.403Z,78269.72
2023-01-27T16:22:19.624Z,78275.81
2023-01-27T16:25:09.000Z,78275.81
2023-01-27T16:27:44.082Z,78267.69
2023-01-27T16:30:20.143Z,78267.69
2023-01-27T16:33:03.116Z,78263.63
2023-01-27T16:35:34.563Z,78267.69
2023-01-27T16:38:27.567Z,78271.75
2023-01-27T16:41:06.089Z,78259.56
2023-01-27T16:43:43.586Z,78275.81
2023-01-27T16:46:30.996Z,78271.75
2023-01-27T16:48:58.396Z,78279.84
2023-01-27T16:51:28.236Z,78279.84
2023-01-27T16:53:58.520Z,78279.84
2023-01-27T16:56:31.067Z,78279.84
2023-01-27T16:59:04.845Z,78275.81
2023-01-27T17:01:43.084Z,78279.84
2023-01-27T17:04:20.487Z,78290.00
2023-01-27T17:06:50.156Z,78290.00
2023-01-27T17:09:26.083Z,78283.91
2023-01-27T17:11:54.126Z,78344.75
2023-01-27T17:14:31.806Z,78287.97
2023-01-27T17:17:02.249Z,78290.00
2023-01-27T17:19:35.704Z,78292.03
2023-01-27T17:22:11.843Z,78279.84
2023-01-27T17:24:48.458Z,78285.94
2023-01-27T17:27:34.263Z,78296.09
2023-01-27T17:30:08.431Z,78292.03
2023-01-27T17:32:39.215Z,78292.03
2023-01-27T17:35:22.048Z,78292.03
2023-01-27T17:37:49.258Z,78292.03
2023-01-27T17:40:19.196Z,78296.09
2023-01-27T17:42:47.586Z,78292.03
2023-01-27T17:45:26.858Z,78296.09
2023-01-27T17:47:57.567Z,78302.16
2023-01-27T17:50:29.504Z,78300.13
2023-01-27T17:52:58.322Z,78304.19
2023-01-27T17:55:26.956Z,78310.28
2023-01-27T17:58:04.348Z,78316.34
2023-01-27T18:00:38.115Z,78314.34
2023-01-27T18:03:22.498Z,78318.38
2023-01-27T18:05:52.976Z,78324.47
2023-01-27T18:08:23.535Z,78332.59
2023-01-27T18:10:51.189Z,78336.66
2023-01-27T18:13:18.483Z,78332.59
2023-01-27T18:15:51.628Z,78336.66
2023-01-27T18:18:29.184Z,78340.69
2023-01-27T18:20:59.201Z,78336.66
2023-01-27T18:23:57.822Z,78344.75
2023-01-27T18:26:32.835Z,78346.78
2023-01-27T18:29:13.918Z,78346.78
2023-01-27T18:31:54.701Z,78344.75
2023-01-27T18:34:31.800Z,78358.94
2023-01-27T18:37:20.948Z,78360.97
2023-01-27T18:39:48.313Z,78360.97
2023-01-27T18:42:21.077Z,78367.06
2023-01-27T18:44:52.240Z,78365.03
2023-01-27T18:47:19.137Z,78367.06
2023-01-27T18:50:00.846Z,78365.03
2023-01-27T18:52:29.118Z,78373.16
2023-01-27T18:55:02.620Z,78373.16
2023-01-27T18:57:29.591Z,78371.13
2023-01-27T18:59:56.739Z,78377.22
2023-01-27T19:02:24.272Z,78373.16
2023-01-27T19:04:51.801Z,78377.22
2023-01-27T19:07:18.863Z,78383.28
2023-01-27T19:09:48.382Z,78381.25
2023-01-27T19:12:15.594Z,78385.31
2023-01-27T19:14:42.824Z,78389.38
2023-01-27T19:17:23.085Z,78381.25
2023-01-27T19:19:50.323Z,78387.34
2023-01-27T19:22:19.644Z,78397.50
2023-01-27T19:24:47.191Z,78395.47
2023-01-27T19:27:16.130Z,78389.38
2023-01-27T19:29:43.569Z,78393.44
2023-01-27T19:32:15.225Z,78403.56
2023-01-27T19:34:42.688Z,78405.59
2023-01-27T19:37:18.709Z,78405.59
2023-01-27T19:39:46.699Z,78419.78
2023-01-27T19:42:15.703Z,78407.63
2023-01-27T19:44:43.093Z,78409.66
2023-01-27T19:47:13.816Z,78409.66
2023-01-27T19:49:42.333Z,78413.72
2023-01-27T19:52:10.129Z,78409.66
2023-01-27T19:54:37.500Z,78413.72
2023-01-27T19:57:05.086Z,78409.66
2023-01-27T19:59:32.432Z,78419.78
2023-01-27T20:01:59.386Z,78421.81
2023-01-27T20:04:26.723Z,78413.72
2023-01-27T20:06:53.722Z,78415.75
2023-01-27T20:09:20.862Z,78417.78
2023-01-27T20:11:47.756Z,78425.88
2023-01-27T20:14:19.000Z,78421.81
2023-01-27T20:16:47.038Z,78425.88
2023-01-27T20:19:15.882Z,78421.81
2023-01-27T20:21:44.063Z,78425.88
2023-01-27T20:24:19.188Z,78431.97
2023-01-27T20:26:46.613Z,78419.78
2023-01-27T20:29:14.193Z,78421.81
2023-01-27T20:31:41.578Z,78421.81
2023-01-27T20:34:08.755Z,78419.78
2023-01-27T20:36:35.858Z,78421.81
2023-01-27T20:39:03.516Z,78421.81
2023-01-27T20:41:30.552Z,78434.00
2023-01-27T20:44:00.596Z,78423.84
2023-01-27T20:46:28.722Z,78429.94
2023-01-27T20:48:56.632Z,78427.91
2023-01-27T20:51:23.563Z,78423.84
2023-01-27T20:53:50.803Z,78425.88
2023-01-27T20:56:20.134Z,78429.94
2023-01-27T20:58:48.167Z,78427.91
2023-01-27T21:01:20.643Z,78425.88
2023-01-27T21:03:48.501Z,78425.88
2023-01-27T21:06:16.045Z,78431.97
2023-01-27T21:08:43.906Z,78423.84
2023-01-27T21:11:11.359Z,78429.94
2023-01-27T21:13:38.964Z,78429.94
2023-01-27T21:16:06.703Z,78429.94
2023-01-27T21:18:35.890Z,78427.91
2023-01-27T21:21:04.208Z,78425.88
2023-01-27T21:23:33.197Z,78438.06
2023-01-27T21:26:05.696Z,78434.00
2023-01-27T21:28:34.055Z,78454.28
2023-01-27T21:31:06.433Z,78442.09
2023-01-27T21:33:37.850Z,78438.06
2023-01-27T21:36:08.055Z,78444.13
2023-01-27T21:38:36.799Z,78442.09
2023-01-27T21:41:10.547Z,78438.06
2023-01-27T21:43:56.649Z,78434.00
2023-01-27T21:46:24.095Z,78438.06
2023-01-27T21:48:51.541Z,78438.06
2023-01-27T21:51:18.555Z,78438.06
2023-01-27T21:53:45.699Z,78429.94
2023-01-27T21:56:13.422Z,78438.06
2023-01-27T21:58:40.626Z,78442.09
2023-01-27T22:01:09.901Z,78434.00
2023-01-27T22:03:38.213Z,78436.03
2023-01-27T22:06:09.394Z,78438.06
2023-01-27T22:08:37.184Z,78438.06
2023-01-27T22:11:04.241Z,78438.06
2023-01-27T22:13:31.535Z,78438.06
2023-01-27T22:15:58.602Z,78429.94
2023-01-27T22:18:25.911Z,78434.00
2023-01-27T22:20:52.877Z,78429.94
2023-01-27T22:23:21.766Z,78446.16
2023-01-27T22:25:53.260Z,78440.06
2023-01-27T22:28:22.978Z,78444.13
2023-01-27T22:30:50.888Z,78446.16
2023-01-27T22:33:18.164Z,78450.22
2023-01-27T22:35:45.262Z,78442.09
2023-01-27T22:38:12.462Z,78442.09
2023-01-27T22:40:39.421Z,78450.22
2023-01-27T22:43:10.116Z,78446.16
2023-01-27T22:45:40.251Z,78434.00
2023-01-27T22:48:08.865Z,78436.03
2023-01-27T22:50:36.596Z,78431.97
2023-01-27T22:53:05.425Z,78438.06
2023-01-27T22:55:32.752Z,78434.00
2023-01-27T22:57:59.980Z,78429.94
2023-01-27T23:00:26.999Z,78434.00
2023-01-27T23:02:54.415Z,78434.00
2023-01-27T23:05:21.387Z,78442.09
2023-01-27T23:07:48.581Z,78436.03
2023-01-27T23:10:16.300Z,78446.16
2023-01-27T23:12:43.474Z,78442.09
2023-01-27T23:15:11.122Z,78446.16
2023-01-27T23:17:38.450Z,78452.25
2023-01-27T23:20:05.870Z,78450.22
2023-01-27T23:22:33.268Z,78450.22
2023-01-27T23:25:00.194Z,78446.16
2023-01-27T23:27:28.631Z,78450.22
2023-01-27T23:29:55.603Z,78450.22
2023-01-27T23:32:22.839Z,78448.19
2023-01-27T23:34:50.397Z,78450.22
2023-01-27T23:37:17.754Z,78450.22
2023-01-27T23:39:48.654Z,78454.28
2023-01-27T23:42:17.225Z,78454.28
2023-01-27T23:44:44.641Z,78458.34
2023-01-27T23:47:12.854Z,78456.31
2023-01-27T23:49:39.935Z,78460.38
2023-01-27T23:52:07.318Z,78458.34
2023-01-27T23:54:34.285Z,78458.34
2023-01-27T23:57:01.565Z,78460.38
2023-01-27T23:59:28.460Z,78458.34
